sensor_id;sensor_type;location;lat;lon;timestamp;pressure;altitude;pressure_sealevel;temperature;humidity
86224;BME280;76887;48.558;12.170;2024-03-08T00:00:17;97332.63;;;2.77;69.70
86224;BME280;76887;48.558;12.170;2024-03-08T00:02:46;97330.09;;;2.76;69.59
86224;BME280;76887;48.558;12.170;2024-03-08T00:05:14;97330.19;;;2.73;69.45
86224;BME280;76887;48.558;12.170;2024-03-08T00:07:41;97328.63;;;2.69;69.94
86224;BME280;76887;48.558;12.170;2024-03-08T00:10:10;97326.88;;;2.69;70.19
86224;BME280;76887;48.558;12.170;2024-03-08T00:12:39;97321.06;;;2.63;70.43
86224;BME280;76887;48.558;12.170;2024-03-08T00:15:12;97316.69;;;2.63;70.04
86224;BME280;76887;48.558;12.170;2024-03-08T00:17:43;97320.97;;;2.66;70.41
86224;BME280;76887;48.558;12.170;2024-03-08T00:20:10;97320.03;;;2.67;70.01
86224;BME280;76887;48.558;12.170;2024-03-08T00:22:37;97320.16;;;2.64;70.49
86224;BME280;76887;48.558;12.170;2024-03-08T00:25:05;97314.22;;;2.60;70.48
86224;BME280;76887;48.558;12.170;2024-03-08T00:27:35;97309.09;;;2.59;70.58
86224;BME280;76887;48.558;12.170;2024-03-08T00:30:02;97305.03;;;2.51;70.78
86224;BME280;76887;48.558;12.170;2024-03-08T00:32:29;97300.75;;;2.50;70.53
86224;BME280;76887;48.558;12.170;2024-03-08T00:34:58;97306.19;;;2.44;70.21
86224;BME280;76887;48.558;12.170;2024-03-08T00:37:24;97302.38;;;2.31;70.22
86224;BME280;76887;48.558;12.170;2024-03-08T00:39:51;97295.09;;;2.17;70.44
86224;BME280;76887;48.558;12.170;2024-03-08T00:42:19;97299.44;;;2.17;71.10
86224;BME280;76887;48.558;12.170;2024-03-08T00:44:46;97292.78;;;2.10;71.35
86224;BME280;76887;48.558;12.170;2024-03-08T00:47:14;97292.13;;;2.05;71.82
86224;BME280;76887;48.558;12.170;2024-03-08T00:49:41;97282.63;;;2.04;71.26
86224;BME280;76887;48.558;12.170;2024-03-08T00:52:08;97285.03;;;2.08;71.98
86224;BME280;76887;48.558;12.170;2024-03-08T00:54:35;97289.31;;;2.11;71.48
86224;BME280;76887;48.558;12.170;2024-03-08T00:57:04;97279.63;;;2.14;71.40
86224;BME280;76887;48.558;12.170;2024-03-08T00:59:33;97283.78;;;2.18;71.44
86224;BME280;76887;48.558;12.170;2024-03-08T01:02:00;97279.44;;;2.19;71.63
86224;BME280;76887;48.558;12.170;2024-03-08T01:04:27;97275.16;;;2.18;71.10
86224;BME280;76887;48.558;12.170;2024-03-08T01:06:57;97274.50;;;2.13;71.26
86224;BME280;76887;48.558;12.170;2024-03-08T01:09:25;97269.47;;;2.08;71.41
86224;BME280;76887;48.558;12.170;2024-03-08T01:11:53;97269.66;;;2.04;71.77
86224;BME280;76887;48.558;12.170;2024-03-08T01:14:24;97270.00;;;1.94;71.35
86224;BME280;76887;48.558;12.170;2024-03-08T01:16:55;97261.53;;;1.89;70.88
86224;BME280;76887;48.558;12.170;2024-03-08T01:19:22;97254.69;;;1.87;71.95
86224;BME280;76887;48.558;12.170;2024-03-08T01:21:50;97258.28;;;1.84;71.94
86224;BME280;76887;48.558;12.170;2024-03-08T01:24:17;97259.38;;;1.77;72.10
86224;BME280;76887;48.558;12.170;2024-03-08T01:26:44;97255.88;;;1.78;72.14
86224;BME280;76887;48.558;12.170;2024-03-08T01:29:11;97254.53;;;1.68;72.07
86224;BME280;76887;48.558;12.170;2024-03-08T01:31:37;97239.88;;;1.67;72.48
86224;BME280;76887;48.558;12.170;2024-03-08T01:34:04;97244.81;;;1.73;72.40
86224;BME280;76887;48.558;12.170;2024-03-08T01:36:31;97242.06;;;1.78;72.94
86224;BME280;76887;48.558;12.170;2024-03-08T01:38:57;97239.28;;;1.82;72.60
86224;BME280;76887;48.558;12.170;2024-03-08T01:41:24;97235.75;;;1.85;72.62
86224;BME280;76887;48.558;12.170;2024-03-08T01:43:50;97228.63;;;1.90;72.24
86224;BME280;76887;48.558;12.170;2024-03-08T01:46:19;97228.53;;;1.93;72.11
86224;BME280;76887;48.558;12.170;2024-03-08T01:48:48;97231.06;;;1.94;72.84
86224;BME280;76887;48.558;12.170;2024-03-08T01:51:18;97227.56;;;1.95;71.70
86224;BME280;76887;48.558;12.170;2024-03-08T01:53:46;97222.31;;;1.97;72.44
86224;BME280;76887;48.558;12.170;2024-03-08T01:56:14;97219.66;;;1.98;71.99
86224;BME280;76887;48.558;12.170;2024-03-08T01:58:41;97219.72;;;1.97;72.48
86224;BME280;76887;48.558;12.170;2024-03-08T02:01:12;97208.44;;;1.98;72.44
86224;BME280;76887;48.558;12.170;2024-03-08T02:03:42;97202.47;;;1.96;72.70
86224;BME280;76887;48.558;12.170;2024-03-08T02:08:38;97198.03;;;1.98;72.38
86224;BME280;76887;48.558;12.170;2024-03-08T02:11:05;97203.97;;;2.02;72.69
86224;BME280;76887;48.558;12.170;2024-03-08T02:13:31;97194.44;;;2.02;72.54
86224;BME280;76887;48.558;12.170;2024-03-08T02:15:59;97185.81;;;2.02;72.00
86224;BME280;76887;48.558;12.170;2024-03-08T02:18:28;97193.53;;;2.03;71.88
86224;BME280;76887;48.558;12.170;2024-03-08T02:20:55;97187.53;;;2.01;72.89
86224;BME280;76887;48.558;12.170;2024-03-08T02:23:22;97192.56;;;2.06;72.77
86224;BME280;76887;48.558;12.170;2024-03-08T02:25:51;97193.47;;;2.05;72.63
86224;BME280;76887;48.558;12.170;2024-03-08T02:28:18;97196.13;;;2.03;72.56
86224;BME280;76887;48.558;12.170;2024-03-08T02:30:46;97194.44;;;2.02;72.65
86224;BME280;76887;48.558;12.170;2024-03-08T02:33:16;97183.31;;;1.98;73.03
86224;BME280;76887;48.558;12.170;2024-03-08T02:35:47;97179.88;;;1.98;72.98
86224;BME280;76887;48.558;12.170;2024-03-08T02:38:15;97178.06;;;2.00;73.38
86224;BME280;76887;48.558;12.170;2024-03-08T02:40:43;97184.16;;;1.99;72.73
86224;BME280;76887;48.558;12.170;2024-03-08T02:43:10;97196.28;;;1.98;72.82
86224;BME280;76887;48.558;12.170;2024-03-08T02:45:37;97182.53;;;1.96;73.61
86224;BME280;76887;48.558;12.170;2024-03-08T02:48:05;97184.41;;;1.93;73.23
86224;BME280;76887;48.558;12.170;2024-03-08T02:50:34;97177.56;;;1.90;73.25
86224;BME280;76887;48.558;12.170;2024-03-08T02:53:01;97172.38;;;1.90;73.98
86224;BME280;76887;48.558;12.170;2024-03-08T02:55:28;97176.63;;;1.93;73.88
86224;BME280;76887;48.558;12.170;2024-03-08T02:57:56;97166.25;;;1.93;73.01
86224;BME280;76887;48.558;12.170;2024-03-08T03:00:23;97168.88;;;1.91;73.54
86224;BME280;76887;48.558;12.170;2024-03-08T03:02:50;97164.53;;;1.92;73.10
86224;BME280;76887;48.558;12.170;2024-03-08T03:05:20;97170.69;;;1.89;72.92
86224;BME280;76887;48.558;12.170;2024-03-08T03:07:47;97162.97;;;1.88;73.19
86224;BME280;76887;48.558;12.170;2024-03-08T03:10:16;97167.19;;;1.90;73.30
86224;BME280;76887;48.558;12.170;2024-03-08T03:12:44;97157.66;;;1.91;73.97
86224;BME280;76887;48.558;12.170;2024-03-08T03:15:12;97160.31;;;1.89;73.57
86224;BME280;76887;48.558;12.170;2024-03-08T03:17:40;97162.75;;;1.94;73.58
86224;BME280;76887;48.558;12.170;2024-03-08T03:20:08;97159.19;;;1.96;73.99
86224;BME280;76887;48.558;12.170;2024-03-08T03:22:41;97160.03;;;1.97;74.17
86224;BME280;76887;48.558;12.170;2024-03-08T03:25:08;97155.69;;;1.97;74.32
86224;BME280;76887;48.558;12.170;2024-03-08T03:27:36;97157.34;;;1.98;74.04
86224;BME280;76887;48.558;12.170;2024-03-08T03:30:04;97158.03;;;2.04;74.28
86224;BME280;76887;48.558;12.170;2024-03-08T03:32:48;97154.53;;;2.05;74.52
86224;BME280;76887;48.558;12.170;2024-03-08T03:35:17;97149.34;;;2.05;74.35
86224;BME280;76887;48.558;12.170;2024-03-08T03:37:44;97154.47;;;2.06;73.73
86224;BME280;76887;48.558;12.170;2024-03-08T03:40:28;97151.75;;;2.09;74.12
86224;BME280;76887;48.558;12.170;2024-03-08T03:42:55;97149.13;;;2.11;73.54
86224;BME280;76887;48.558;12.170;2024-03-08T03:45:25;97150.59;;;2.16;73.54
86224;BME280;76887;48.558;12.170;2024-03-08T03:47:52;97151.38;;;2.18;73.30
86224;BME280;76887;48.558;12.170;2024-03-08T03:50:19;97144.50;;;2.17;73.47
86224;BME280;76887;48.558;12.170;2024-03-08T03:52:47;97150.47;;;2.19;73.36
86224;BME280;76887;48.558;12.170;2024-03-08T03:55:14;97147.16;;;2.16;73.34
86224;BME280;76887;48.558;12.170;2024-03-08T03:57:41;97150.66;;;2.15;73.01
86224;BME280;76887;48.558;12.170;2024-03-08T04:00:08;97146.19;;;2.18;73.38
86224;BME280;76887;48.558;12.170;2024-03-08T04:02:38;97141.00;;;2.18;73.23
86224;BME280;76887;48.558;12.170;2024-03-08T04:05:06;97134.88;;;2.19;73.10
86224;BME280;76887;48.558;12.170;2024-03-08T04:07:33;97133.16;;;2.20;72.92
86224;BME280;76887;48.558;12.170;2024-03-08T04:10:02;97130.56;;;2.20;73.44
86224;BME280;76887;48.558;12.170;2024-03-08T04:12:29;97129.69;;;2.19;72.67
86224;BME280;76887;48.558;12.170;2024-03-08T04:14:56;97138.38;;;2.20;71.69
86224;BME280;76887;48.558;12.170;2024-03-08T04:17:23;97134.13;;;2.17;71.79
86224;BME280;76887;48.558;12.170;2024-03-08T04:19:50;97135.09;;;2.15;71.39
86224;BME280;76887;48.558;12.170;2024-03-08T04:22:17;97123.03;;;2.14;71.85
86224;BME280;76887;48.558;12.170;2024-03-08T04:24:44;97126.63;;;2.10;71.77
86224;BME280;76887;48.558;12.170;2024-03-08T04:27:12;97120.66;;;2.08;71.76
86224;BME280;76887;48.558;12.170;2024-03-08T04:29:39;97118.19;;;2.05;71.67
86224;BME280;76887;48.558;12.170;2024-03-08T04:32:06;97112.16;;;2.04;71.46
86224;BME280;76887;48.558;12.170;2024-03-08T04:34:35;97113.25;;;1.98;71.71
86224;BME280;76887;48.558;12.170;2024-03-08T04:37:02;97117.66;;;1.96;71.57
86224;BME280;76887;48.558;12.170;2024-03-08T04:39:28;97113.31;;;1.97;71.77
86224;BME280;76887;48.558;12.170;2024-03-08T04:42:00;97122.91;;;1.95;71.63
86224;BME280;76887;48.558;12.170;2024-03-08T04:44:32;97115.19;;;1.93;71.78
86224;BME280;76887;48.558;12.170;2024-03-08T04:47:00;97108.19;;;1.95;71.77
86224;BME280;76887;48.558;12.170;2024-03-08T04:49:27;97118.63;;;1.94;72.15
86224;BME280;76887;48.558;12.170;2024-03-08T04:51:54;97122.91;;;1.95;71.79
86224;BME280;76887;48.558;12.170;2024-03-08T04:54:21;97112.53;;;1.95;72.29
86224;BME280;76887;48.558;12.170;2024-03-08T04:56:48;97107.34;;;1.95;72.46
86224;BME280;76887;48.558;12.170;2024-03-08T04:59:14;97113.38;;;1.95;72.36
86224;BME280;76887;48.558;12.170;2024-03-08T05:01:41;97111.69;;;1.94;72.19
86224;BME280;76887;48.558;12.170;2024-03-08T05:04:08;97107.50;;;1.90;71.83
86224;BME280;76887;48.558;12.170;2024-03-08T05:06:35;97104.06;;;1.90;72.09
86224;BME280;76887;48.558;12.170;2024-03-08T05:09:03;97104.13;;;1.88;72.36
86224;BME280;76887;48.558;12.170;2024-03-08T05:11:43;97099.00;;;1.87;71.91
86224;BME280;76887;48.558;12.170;2024-03-08T05:14:11;97092.97;;;1.86;71.47
86224;BME280;76887;48.558;12.170;2024-03-08T05:16:38;97094.78;;;1.84;72.31
86224;BME280;76887;48.558;12.170;2024-03-08T05:19:06;97098.28;;;1.83;72.14
86224;BME280;76887;48.558;12.170;2024-03-08T05:21:33;97097.47;;;1.81;72.84
86224;BME280;76887;48.558;12.170;2024-03-08T05:24:00;97094.13;;;1.79;72.74
86224;BME280;76887;48.558;12.170;2024-03-08T05:26:26;97089.84;;;1.78;72.76
86224;BME280;76887;48.558;12.170;2024-03-08T05:28:53;97089.91;;;1.77;72.35
86224;BME280;76887;48.558;12.170;2024-03-08T05:31:20;97086.47;;;1.76;72.57
86224;BME280;76887;48.558;12.170;2024-03-08T05:33:49;97088.94;;;1.79;71.87
86224;BME280;76887;48.558;12.170;2024-03-08T05:36:16;97090.53;;;1.82;72.03
86224;BME280;76887;48.558;12.170;2024-03-08T05:38:43;97087.16;;;1.80;71.91
86224;BME280;76887;48.558;12.170;2024-03-08T05:41:10;97083.03;;;1.76;72.32
86224;BME280;76887;48.558;12.170;2024-03-08T05:43:41;97077.94;;;1.73;72.03
86224;BME280;76887;48.558;12.170;2024-03-08T05:46:08;97088.28;;;1.74;71.92
86224;BME280;76887;48.558;12.170;2024-03-08T05:48:34;97087.31;;;1.77;71.89
86224;BME280;76887;48.558;12.170;2024-03-08T05:51:01;97073.50;;;1.76;71.70
86224;BME280;76887;48.558;12.170;2024-03-08T05:53:29;97080.22;;;1.80;71.79
86224;BME280;76887;48.558;12.170;2024-03-08T05:55:58;97088.84;;;1.81;71.16
86224;BME280;76887;48.558;12.170;2024-03-08T05:58:25;97080.22;;;1.80;71.88
86224;BME280;76887;48.558;12.170;2024-03-08T06:00:51;97083.09;;;1.74;71.99
86224;BME280;76887;48.558;12.170;2024-03-08T06:03:19;97078.69;;;1.76;72.11
86224;BME280;76887;48.558;12.170;2024-03-08T06:05:48;97081.34;;;1.75;72.04
86224;BME280;76887;48.558;12.170;2024-03-08T06:08:16;97077.94;;;1.73;71.67
86224;BME280;76887;48.558;12.170;2024-03-08T06:10:42;97068.53;;;1.70;72.33
86224;BME280;76887;48.558;12.170;2024-03-08T06:13:09;97068.53;;;1.70;72.19
86224;BME280;76887;48.558;12.170;2024-03-08T06:15:38;97072.75;;;1.73;72.10
86224;BME280;76887;48.558;12.170;2024-03-08T06:18:05;97074.41;;;1.75;72.56
86224;BME280;76887;48.558;12.170;2024-03-08T06:20:32;97078.75;;;1.75;72.47
86224;BME280;76887;48.558;12.170;2024-03-08T06:22:59;97076.78;;;1.80;71.56
86224;BME280;76887;48.558;12.170;2024-03-08T06:25:26;97075.88;;;1.81;72.26
86224;BME280;76887;48.558;12.170;2024-03-08T06:27:52;97081.84;;;1.83;72.46
86224;BME280;76887;48.558;12.170;2024-03-08T06:30:19;97071.53;;;1.81;71.77
86224;BME280;76887;48.558;12.170;2024-03-08T06:32:47;97071.38;;;1.86;71.69
86224;BME280;76887;48.558;12.170;2024-03-08T06:35:14;97062.84;;;1.82;71.33
86224;BME280;76887;48.558;12.170;2024-03-08T06:37:42;97076.72;;;1.81;71.80
86224;BME280;76887;48.558;12.170;2024-03-08T06:40:11;97069.78;;;1.82;71.83
86224;BME280;76887;48.558;12.170;2024-03-08T06:42:41;97068.66;;;1.89;72.05
86224;BME280;76887;48.558;12.170;2024-03-08T06:45:08;97077.03;;;1.95;71.70
86224;BME280;76887;48.558;12.170;2024-03-08T06:47:36;97082.00;;;2.02;71.84
86224;BME280;76887;48.558;12.170;2024-03-08T06:50:04;97074.72;;;2.10;71.73
86224;BME280;76887;48.558;12.170;2024-03-08T06:52:30;97084.84;;;2.16;71.71
86224;BME280;76887;48.558;12.170;2024-03-08T06:54:57;97082.94;;;2.21;71.94
86224;BME280;76887;48.558;12.170;2024-03-08T06:57:24;97076.91;;;2.20;71.63
86224;BME280;76887;48.558;12.170;2024-03-08T06:59:51;97073.25;;;2.24;71.85
86224;BME280;76887;48.558;12.170;2024-03-08T07:02:18;97082.59;;;2.28;71.10
86224;BME280;76887;48.558;12.170;2024-03-08T07:04:45;97082.47;;;2.32;70.67
86224;BME280;76887;48.558;12.170;2024-03-08T07:07:12;97080.59;;;2.35;71.02
86224;BME280;76887;48.558;12.170;2024-03-08T07:09:38;97061.56;;;2.35;70.22
86224;BME280;76887;48.558;12.170;2024-03-08T07:12:05;97070.09;;;2.38;70.87
86224;BME280;76887;48.558;12.170;2024-03-08T07:14:32;97066.69;;;2.36;70.03
86224;BME280;76887;48.558;12.170;2024-03-08T07:16:59;97070.94;;;2.39;70.57
86224;BME280;76887;48.558;12.170;2024-03-08T07:19:27;97066.31;;;2.45;70.17
86224;BME280;76887;48.558;12.170;2024-03-08T07:21:53;97063.59;;;2.48;70.04
86224;BME280;76887;48.558;12.170;2024-03-08T07:24:21;97073.78;;;2.53;70.59
86224;BME280;76887;48.558;12.170;2024-03-08T07:27:04;97068.25;;;2.61;70.48
86224;BME280;76887;48.558;12.170;2024-03-08T07:29:34;97065.41;;;2.67;69.72
86224;BME280;76887;48.558;12.170;2024-03-08T07:32:01;97065.97;;;2.73;69.70
86224;BME280;76887;48.558;12.170;2024-03-08T07:34:48;97067.59;;;2.76;70.38
86224;BME280;76887;48.558;12.170;2024-03-08T07:37:17;97076.09;;;2.79;69.92
86224;BME280;76887;48.558;12.170;2024-03-08T07:39:45;97063.19;;;2.78;69.42
86224;BME280;76887;48.558;12.170;2024-03-08T07:42:12;97066.41;;;2.83;70.14
86224;BME280;76887;48.558;12.170;2024-03-08T07:44:39;97068.13;;;2.84;69.64
86224;BME280;76887;48.558;12.170;2024-03-08T07:47:06;97069.00;;;2.83;68.98
86224;BME280;76887;48.558;12.170;2024-03-08T07:49:36;97064.69;;;2.83;69.46
86224;BME280;76887;48.558;12.170;2024-03-08T07:52:04;97067.91;;;2.89;69.88
86224;BME280;76887;48.558;12.170;2024-03-08T07:54:31;97058.34;;;2.89;68.52
86224;BME280;76887;48.558;12.170;2024-03-08T07:56:57;97059.09;;;2.93;68.79
86224;BME280;76887;48.558;12.170;2024-03-08T07:59:24;97067.66;;;2.95;68.93
86224;BME280;76887;48.558;12.170;2024-03-08T08:01:51;97055.28;;;3.00;68.31
86224;BME280;76887;48.558;12.170;2024-03-08T08:04:17;97050.72;;;3.05;68.50
86224;BME280;76887;48.558;12.170;2024-03-08T08:06:45;97056.50;;;3.11;69.14
86224;BME280;76887;48.558;12.170;2024-03-08T08:09:12;97051.50;;;3.26;68.64
86224;BME280;76887;48.558;12.170;2024-03-08T08:11:41;97048.31;;;3.38;67.99
86224;BME280;76887;48.558;12.170;2024-03-08T08:14:11;97044.53;;;3.45;68.25
86224;BME280;76887;48.558;12.170;2024-03-08T08:16:38;97044.09;;;3.54;67.38
86224;BME280;76887;48.558;12.170;2024-03-08T08:19:07;97052.41;;;3.62;66.96
86224;BME280;76887;48.558;12.170;2024-03-08T08:21:34;97042.81;;;3.63;66.82
86224;BME280;76887;48.558;12.170;2024-03-08T08:24:03;97034.03;;;3.65;66.58
86224;BME280;76887;48.558;12.170;2024-03-08T08:26:30;97036.34;;;3.71;66.85
86224;BME280;76887;48.558;12.170;2024-03-08T08:29:00;97033.75;;;3.71;66.51
86224;BME280;76887;48.558;12.170;2024-03-08T08:31:26;97040.56;;;3.74;66.02
86224;BME280;76887;48.558;12.170;2024-03-08T08:33:53;97026.41;;;3.80;66.18
86224;BME280;76887;48.558;12.170;2024-03-08T08:36:24;97031.09;;;3.90;66.17
86224;BME280;76887;48.558;12.170;2024-03-08T08:38:51;97021.91;;;4.00;65.95
86224;BME280;76887;48.558;12.170;2024-03-08T08:41:20;97022.31;;;4.10;65.56
86224;BME280;76887;48.558;12.170;2024-03-08T08:43:48;97020.16;;;4.18;65.98
86224;BME280;76887;48.558;12.170;2024-03-08T08:46:28;97019.09;;;4.22;66.28
86224;BME280;76887;48.558;12.170;2024-03-08T08:48:55;97008.59;;;4.24;65.02
86224;BME280;76887;48.558;12.170;2024-03-08T08:51:22;97004.84;;;4.29;65.85
86224;BME280;76887;48.558;12.170;2024-03-08T08:53:49;97005.53;;;4.33;64.99
86224;BME280;76887;48.558;12.170;2024-03-08T08:56:16;97004.69;;;4.33;64.51
86224;BME280;76887;48.558;12.170;2024-03-08T08:58:43;97008.69;;;4.40;65.11
86224;BME280;76887;48.558;12.170;2024-03-08T09:01:10;97001.16;;;4.51;65.55
86224;BME280;76887;48.558;12.170;2024-03-08T09:03:38;97005.97;;;4.59;65.20
86224;BME280;76887;48.558;12.170;2024-03-08T09:06:07;96994.38;;;4.64;63.95
86224;BME280;76887;48.558;12.170;2024-03-08T09:08:37;96991.53;;;4.69;64.38
86224;BME280;76887;48.558;12.170;2024-03-08T09:11:04;96987.09;;;4.71;63.79
86224;BME280;76887;48.558;12.170;2024-03-08T09:13:32;96983.38;;;4.75;64.23
86224;BME280;76887;48.558;12.170;2024-03-08T09:16:02;96988.28;;;4.81;63.54
86224;BME280;76887;48.558;12.170;2024-03-08T09:18:29;96980.22;;;4.85;63.92
86224;BME280;76887;48.558;12.170;2024-03-08T09:20:55;96985.28;;;4.89;63.64
86224;BME280;76887;48.558;12.170;2024-03-08T09:23:22;96982.50;;;4.92;62.95
86224;BME280;76887;48.558;12.170;2024-03-08T09:25:49;96970.47;;;4.89;63.00
86224;BME280;76887;48.558;12.170;2024-03-08T09:28:15;96965.91;;;4.93;61.96
86224;BME280;76887;48.558;12.170;2024-03-08T09:30:42;96972.50;;;5.00;62.36
86224;BME280;76887;48.558;12.170;2024-03-08T09:33:24;96970.63;;;5.02;62.45
86224;BME280;76887;48.558;12.170;2024-03-08T09:35:51;96969.47;;;5.07;62.36
86224;BME280;76887;48.558;12.170;2024-03-08T09:38:19;96963.84;;;5.15;61.75
86224;BME280;76887;48.558;12.170;2024-03-08T09:40:47;96961.06;;;5.18;61.34
86224;BME280;76887;48.558;12.170;2024-03-08T09:43:14;96970.16;;;5.27;61.56
86224;BME280;76887;48.558;12.170;2024-03-08T09:45:41;96958.47;;;5.34;61.72
86224;BME280;76887;48.558;12.170;2024-03-08T09:48:12;96963.34;;;5.40;61.66
86224;BME280;76887;48.558;12.170;2024-03-08T09:50:42;96943.78;;;5.47;61.32
86224;BME280;76887;48.558;12.170;2024-03-08T09:53:11;96950.16;;;5.57;61.90
86224;BME280;76887;48.558;12.170;2024-03-08T09:55:38;96941.75;;;5.68;61.96
86224;BME280;76887;48.558;12.170;2024-03-08T09:58:11;96929.44;;;5.70;61.16
86224;BME280;76887;48.558;12.170;2024-03-08T10:00:56;96922.94;;;5.77;62.13
86224;BME280;76887;48.558;12.170;2024-03-08T10:03:23;96928.56;;;5.85;61.20
86224;BME280;76887;48.558;12.170;2024-03-08T10:05:52;96918.78;;;5.89;60.65
86224;BME280;76887;48.558;12.170;2024-03-08T10:08:20;96928.13;;;5.93;60.45
86224;BME280;76887;48.558;12.170;2024-03-08T10:10:46;96925.47;;;5.94;59.74
86224;BME280;76887;48.558;12.170;2024-03-08T10:13:13;96928.63;;;5.99;60.18
86224;BME280;76887;48.558;12.170;2024-03-08T10:15:40;96921.28;;;6.06;60.04
86224;BME280;76887;48.558;12.170;2024-03-08T10:18:07;96925.78;;;6.18;60.58
86224;BME280;76887;48.558;12.170;2024-03-08T10:20:33;96914.56;;;6.16;58.57
86224;BME280;76887;48.558;12.170;2024-03-08T10:23:01;96921.97;;;6.24;59.03
86224;BME280;76887;48.558;12.170;2024-03-08T10:25:37;96910.56;;;6.25;58.52
86224;BME280;76887;48.558;12.170;2024-03-08T10:28:04;96921.50;;;6.32;58.20
86224;BME280;76887;48.558;12.170;2024-03-08T10:30:34;96916.09;;;6.35;57.56
86224;BME280;76887;48.558;12.170;2024-03-08T10:33:00;96913.13;;;6.41;57.23
86224;BME280;76887;48.558;12.170;2024-03-08T10:35:29;96921.59;;;6.44;57.43
86224;BME280;76887;48.558;12.170;2024-03-08T10:37:56;96903.88;;;6.49;56.25
86224;BME280;76887;48.558;12.170;2024-03-08T10:40:27;96911.44;;;6.54;55.73
86224;BME280;76887;48.558;12.170;2024-03-08T10:42:56;96914.50;;;6.61;55.91
86224;BME280;76887;48.558;12.170;2024-03-08T10:45:37;96900.03;;;6.69;56.43
86224;BME280;76887;48.558;12.170;2024-03-08T10:48:28;96900.22;;;6.80;56.01
86224;BME280;76887;48.558;12.170;2024-03-08T10:51:02;96900.66;;;6.87;55.13
86224;BME280;76887;48.558;12.170;2024-03-08T10:53:29;96890.94;;;6.89;54.07
86224;BME280;76887;48.558;12.170;2024-03-08T10:55:56;96895.88;;;6.94;53.63
86224;BME280;76887;48.558;12.170;2024-03-08T10:58:27;96893.34;;;6.92;53.80
86224;BME280;76887;48.558;12.170;2024-03-08T11:00:55;96889.63;;;6.96;55.29
86224;BME280;76887;48.558;12.170;2024-03-08T11:06:08;96883.97;;;7.17;54.97
86224;BME280;76887;48.558;12.170;2024-03-08T11:08:36;96889.31;;;7.15;52.65
86224;BME280;76887;48.558;12.170;2024-03-08T11:11:03;96887.53;;;7.16;53.43
86224;BME280;76887;48.558;12.170;2024-03-08T11:13:39;96888.25;;;7.18;52.31
86224;BME280;76887;48.558;12.170;2024-03-08T11:16:09;96883.03;;;7.18;52.59
86224;BME280;76887;48.558;12.170;2024-03-08T11:18:37;96888.91;;;7.21;53.04
86224;BME280;76887;48.558;12.170;2024-03-08T11:21:09;96880.75;;;7.26;52.22
86224;BME280;76887;48.558;12.170;2024-03-08T11:23:39;96879.81;;;7.27;52.86
86224;BME280;76887;48.558;12.170;2024-03-08T11:26:24;96877.44;;;7.36;53.58
86224;BME280;76887;48.558;12.170;2024-03-08T11:28:50;96862.38;;;7.40;52.93
86224;BME280;76887;48.558;12.170;2024-03-08T11:31:23;96865.31;;;7.48;52.60
86224;BME280;76887;48.558;12.170;2024-03-08T11:33:52;96862.59;;;7.50;52.05
86224;BME280;76887;48.558;12.170;2024-03-08T11:36:21;96854.16;;;7.59;52.49
86224;BME280;76887;48.558;12.170;2024-03-08T11:38:50;96854.28;;;7.70;52.18
86224;BME280;76887;48.558;12.170;2024-03-08T11:41:20;96852.63;;;7.82;53.98
86224;BME280;76887;48.558;12.170;2024-03-08T11:43:48;96840.59;;;7.92;52.96
86224;BME280;76887;48.558;12.170;2024-03-08T11:46:16;96840.06;;;7.99;52.54
86224;BME280;76887;48.558;12.170;2024-03-08T11:48:44;96835.25;;;8.06;51.32
86224;BME280;76887;48.558;12.170;2024-03-08T11:51:11;96834.75;;;8.14;51.54
86224;BME280;76887;48.558;12.170;2024-03-08T11:53:38;96828.22;;;8.19;51.32
86224;BME280;76887;48.558;12.170;2024-03-08T11:58:36;96819.94;;;8.25;49.91
86224;BME280;76887;48.558;12.170;2024-03-08T12:01:07;96826.03;;;8.26;49.51
86224;BME280;76887;48.558;12.170;2024-03-08T12:03:39;96817.63;;;8.21;49.84
86224;BME280;76887;48.558;12.170;2024-03-08T12:06:06;96816.38;;;8.26;49.35
86224;BME280;76887;48.558;12.170;2024-03-08T12:08:32;96818.06;;;8.27;49.06
86224;BME280;76887;48.558;12.170;2024-03-08T12:10:59;96807.56;;;8.27;49.47
86224;BME280;76887;48.558;12.170;2024-03-08T12:13:27;96812.38;;;8.34;50.46
86224;BME280;76887;48.558;12.170;2024-03-08T12:15:57;96794.56;;;8.39;50.68
86224;BME280;76887;48.558;12.170;2024-03-08T12:18:25;96777.47;;;8.46;51.21
86224;BME280;76887;48.558;12.170;2024-03-08T12:21:04;96784.91;;;8.52;51.69
86224;BME280;76887;48.558;12.170;2024-03-08T12:23:30;96789.09;;;8.54;49.88
86224;BME280;76887;48.558;12.170;2024-03-08T12:25:57;96774.06;;;8.57;48.88
86224;BME280;76887;48.558;12.170;2024-03-08T12:28:26;96771.44;;;8.57;48.39
86224;BME280;76887;48.558;12.170;2024-03-08T12:30:52;96773.75;;;8.61;49.89
86224;BME280;76887;48.558;12.170;2024-03-08T12:33:21;96767.22;;;8.67;49.97
86224;BME280;76887;48.558;12.170;2024-03-08T12:35:54;96765.34;;;8.69;49.10
86224;BME280;76887;48.558;12.170;2024-03-08T12:38:22;96759.03;;;8.71;49.57
86224;BME280;76887;48.558;12.170;2024-03-08T12:40:58;96752.72;;;8.74;49.55
86224;BME280;76887;48.558;12.170;2024-03-08T12:43:25;96758.56;;;8.77;49.15
86224;BME280;76887;48.558;12.170;2024-03-08T12:45:52;96749.31;;;8.84;49.81
86224;BME280;76887;48.558;12.170;2024-03-08T12:48:19;96750.91;;;8.87;48.75
86224;BME280;76887;48.558;12.170;2024-03-08T12:50:47;96752.66;;;8.87;49.41
86224;BME280;76887;48.558;12.170;2024-03-08T12:53:14;96745.41;;;8.90;49.25
86224;BME280;76887;48.558;12.170;2024-03-08T12:55:41;96740.03;;;8.92;49.07
86224;BME280;76887;48.558;12.170;2024-03-08T12:58:09;96743.63;;;8.91;48.19
86224;BME280;76887;48.558;12.170;2024-03-08T13:00:36;96743.50;;;8.92;47.71
86224;BME280;76887;48.558;12.170;2024-03-08T13:03:03;96743.38;;;8.94;47.48
86224;BME280;76887;48.558;12.170;2024-03-08T13:05:34;96737.94;;;8.97;47.16
86224;BME280;76887;48.558;12.170;2024-03-08T13:08:06;96734.34;;;8.98;46.46
86224;BME280;76887;48.558;12.170;2024-03-08T13:10:42;96728.88;;;9.01;47.02
86224;BME280;76887;48.558;12.170;2024-03-08T13:13:12;96733.41;;;8.99;45.50